Latest Weather Observations for Tewantin

IDQ60901

Issued at 4:01 am EST Saturday 3 December 2016 (issued every 10 minutes, with the page automatically refreshed every 10 minutes)

About weather observations | Map of Brisbane area stations | Latest observations for Brisbane area | Other Formats
Station Details ID: 040908 Name: TEWANTIN RSL PARK Lat: -26.39 Lon: 153.04 Height: 6.4 m
Data from the previous 72 hours. | See also: Recent months at Tewantin
Date/Time
EST
Temp
°C
App
Temp
°C
Dew
Point
°C
Rel
Hum
%
Delta-T
°C
Wind Press
QNH
hPa
Press
MSL
hPa
Rain since
9am
mm
Dir  Spd
km/h
Gust
km/h
Spd
kts
Gust
kts
03/04:00am 24.8 27.6 21.5 82 2.2 NNW 9 13 5 7 1012.8 1012.9 -
03/03:30am 24.9 27.7 21.6 82 2.2 NNW 9 17 5 9 1012.8 1012.8 0.0
03/03:00am 24.9 26.8 21.4 81 2.3 N 13 20 7 11 1012.2 1012.2 0.0
03/02:30am 24.9 27.1 21.8 83 2.1 NNW 13 20 7 11 1012.1 1012.1 0.0
03/02:00am 24.9 27.9 22.0 84 1.9 NNW 9 15 5 8 1012.4 1012.4 0.0
03/01:30am 25.1 26.9 21.8 82 2.2 NNW 15 24 8 13 1012.6 1012.6 0.0
03/01:00am 25.0 27.3 22.1 84 1.9 NNW 13 20 7 11 1012.8 1012.8 0.0
03/12:30am 25.0 27.2 21.9 83 2.1 NNW 13 24 7 13 1013.2 1013.2 0.0
03/12:00am 25.0 27.4 22.3 85 1.8 NNW 13 20 7 11 1013.4 1013.4 0.0
 
Date/Time
EST
Temp
°C
App
Temp
°C
Dew
Point
°C
Rel
Hum
%
Delta-T
°C
Wind Press
QNH
hPa
Press
MSL
hPa
Rain since
9am
mm
Dir  Spd
km/h
Gust
km/h
Spd
kts
Gust
kts
02/11:30pm 25.0 27.3 22.1 84 1.9 NNW 13 20 7 11 1013.7 1013.7 0.0
02/11:00pm 24.9 27.4 22.4 86 1.7 NNW 13 20 7 11 1013.6 1013.6 0.0
02/10:30pm 25.0 27.0 22.3 85 1.8 NNW 15 22 8 12 1013.6 1013.6 0.0
02/10:00pm 24.9 27.3 22.2 85 1.8 NNW 13 20 7 11 1013.5 1013.5 0.0
02/09:30pm 24.9 27.6 22.8 88 1.4 NNW 13 19 7 10 1013.4 1013.4 0.0
02/09:00pm 25.0 27.4 22.9 88 1.4 N 15 22 8 12 1012.8 1012.8 0.0
02/08:30pm 25.1 27.0 22.8 87 1.6 N 17 24 9 13 1012.4 1012.4 0.0
02/08:00pm 24.9 27.6 22.8 88 1.4 NNE 13 17 7 9 1011.9 1011.9 0.0
02/07:30pm 24.7 28.2 23.5 93 0.8 NNE 11 15 6 8 1011.6 1011.6 0.0
02/07:00pm 24.6 26.8 23.2 92 0.9 NNE 17 22 9 12 1011.2 1011.2 0.0
02/06:30pm 24.8 26.3 23.0 90 1.2 NNE 20 28 11 15 1010.9 1010.9 0.0
02/06:00pm 25.2 26.8 23.3 89 1.3 NNE 20 32 11 17 1010.6 1010.6 0.0
02/05:30pm 25.3 25.8 22.6 85 1.8 NNE 24 33 13 18 1010.2 1010.2 0.0
02/05:00pm 25.8 25.9 22.5 82 2.2 NNE 26 39 14 21 1009.9 1009.9 0.0
02/04:30pm 25.9 25.7 22.8 83 2.1 NNE 28 41 15 22 1009.7 1009.7 0.0
02/04:00pm 26.2 25.5 22.5 80 2.5 NNE 30 46 16 25 1009.6 1009.6 0.0
02/03:45pm 26.4 26.0 22.3 78 2.8 NNE 28 46 15 25 1009.5 1009.5 0.0
02/03:30pm 26.9 27.0 23.2 80 2.5 NNE 28 41 15 22 1009.6 1009.6 0.0
02/03:20pm 26.7 26.5 22.8 79 2.6 NNE 28 48 15 26 1009.5 1009.5 0.0
02/03:00pm 26.7 26.3 22.3 77 3.0 NNE 28 41 15 22 1009.7 1009.7 0.0
02/02:47pm 26.6 26.0 22.0 76 3.1 NNE 28 46 15 25 1009.8 1009.8 0.0
02/02:30pm 26.7 25.2 21.7 74 3.3 NNE 32 46 17 25 1010.0 1010.0 0.0
02/02:10pm 27.2 26.9 22.6 76 3.1 NNE 28 50 15 27 1010.0 1010.0 0.0
02/02:00pm 27.3 26.9 23.1 78 2.9 NNE 30 39 16 21 1010.1 1010.1 0.0
02/01:30pm 27.4 27.8 22.4 74 3.4 NE 24 37 13 20 1010.4 1010.4 0.0
02/01:00pm 27.1 26.3 22.3 75 3.2 NNE 30 41 16 22 1010.8 1010.8 0.0
02/12:30pm 27.1 26.6 22.1 74 3.4 NNE 28 41 15 22 1011.0 1011.0 0.0
02/12:00pm 27.5 28.2 22.2 73 3.6 NNE 22 30 12 16 1011.3 1011.3 0.0
02/11:30am 27.4 27.5 21.9 72 3.7 NNE 24 32 13 17 - - 0.0
02/11:00am 27.9 28.9 21.7 69 4.2 NE 19 28 10 15 1011.8 1011.8 0.0
02/10:30am 29.5 30.6 21.2 61 5.5 N 17 24 9 13 1012.2 1012.2 0.0
02/10:00am 28.5 29.7 20.0 60 5.6 NNE 13 20 7 11 1012.5 1012.5 0.0
02/09:30am 28.2 29.4 20.7 63 5.0 N 15 22 8 12 1012.6 1012.6 0.0
02/09:00am 27.3 28.7 20.4 66 4.5 NNW 13 19 7 10 1012.5 1012.5 1.0
02/08:30am 26.9 28.1 20.7 69 4.1 NNW 15 24 8 13 1012.4 1012.4 1.0
02/08:00am 25.4 28.9 22.1 82 2.2 NW 7 13 4 7 1012.9 1012.9 1.0
02/07:30am 24.6 26.5 21.3 82 2.2 NNW 13 19 7 10 1013.0 1013.0 1.0
02/07:00am 23.9 26.9 22.0 89 1.3 NNW 9 17 5 9 1012.9 1012.9 1.0
02/06:30am 22.5 24.4 21.3 93 0.8 NNW 13 19 7 10 1012.6 1012.6 1.0
02/06:00am 21.6 24.6 21.3 98 0.2 N 7 11 4 6 1012.2 1012.2 1.0
02/05:30am 20.4 22.9 20.2 99 0.1 N 7 9 4 5 1012.2 1012.2 1.0
02/05:00am 20.0 22.5 19.8 99 0.1 NW 6 9 3 5 1012.0 1012.0 1.0
02/04:30am 19.8 22.2 19.6 99 0.1 NNW 6 11 3 6 1011.5 1011.5 1.0
02/04:00am 19.8 22.0 19.6 99 0.1 NW 7 9 4 5 1011.4 1011.4 0.8
02/03:30am 20.0 22.3 19.8 99 0.1 NNW 7 9 4 5 1011.1 1011.1 0.8
02/03:00am 19.8 22.1 19.5 98 0.2 NW 6 7 3 4 1010.9 1010.9 0.8
02/02:30am 20.2 22.8 20.0 99 0.1 NNW 6 7 3 4 1010.7 1010.7 0.8
02/02:00am 20.3 23.7 20.1 99 0.1 N 2 7 1 4 1011.0 1011.0 0.8
02/01:30am 19.7 22.9 18.9 95 0.5 CALM 0 0 0 0 1011.1 1011.1 0.8
02/01:00am 20.1 22.8 19.4 96 0.4 W 4 6 2 3 1011.3 1011.3 0.8
02/12:30am 20.1 23.5 19.3 95 0.5 CALM 0 0 0 0 1011.2 1011.2 0.8
02/12:00am 20.5 24.1 19.8 96 0.4 CALM 0 0 0 0 1011.4 1011.4 0.8
 
Date/Time
EST
Temp
°C
App
Temp
°C
Dew
Point
°C
Rel
Hum
%
Delta-T
°C
Wind Press
QNH
hPa
Press
MSL
hPa
Rain since
9am
mm
Dir  Spd
km/h
Gust
km/h
Spd
kts
Gust
kts
01/11:30pm 20.9 24.0 20.2 96 0.4 SW 4 7 2 4 1011.8 1011.8 0.8
01/11:00pm 20.6 23.1 19.9 96 0.4 NNW 6 9 3 5 1011.8 1011.8 0.8
01/10:30pm 20.5 22.8 19.5 94 0.6 NW 6 11 3 6 1011.9 1011.9 0.8
01/10:00pm 21.1 23.4 19.4 90 1.1 NW 6 7 3 4 1011.9 1011.9 0.8
01/09:30pm 21.5 23.1 19.2 87 1.5 NW 9 13 5 7 1012.0 1012.0 0.8
01/09:00pm 22.7 22.5 18.5 77 2.6 N 17 24 9 13 1011.7 1011.7 0.8
01/08:30pm 23.1 24.1 21.0 88 1.4 N 17 28 9 15 1011.5 1011.5 0.8
01/08:00pm 22.5 23.8 20.8 90 1.1 NNE 15 24 8 13 1011.4 1011.4 0.8
01/07:30pm 23.3 25.4 22.5 95 0.5 NNW 15 20 8 11 1012.4 1012.4 0.8
01/07:00pm 24.4 26.2 21.9 86 1.7 SSE 15 24 8 13 1012.2 1012.2 0.4
01/06:53pm 24.4 26.6 21.9 86 1.7 ESE 13 22 7 12 1012.2 1012.2 0.4
01/06:48pm 24.1 26.5 21.6 86 1.7 NE 11 20 6 11 1010.2 1010.2 0.4
01/06:30pm 24.0 24.1 21.9 88 1.4 N 24 39 13 21 1007.9 1007.9 0.4
01/06:00pm 23.9 24.1 22.0 89 1.3 NNE 24 35 13 19 1007.8 1007.8 0.4
01/05:30pm 23.9 23.6 22.5 92 0.9 N 28 39 15 21 1008.4 1008.4 0.4
01/05:00pm 24.3 26.6 22.7 91 1.1 NNE 15 30 8 16 1009.5 1009.5 0.0
01/04:30pm 24.5 24.9 20.6 79 2.5 NE 19 32 10 17 1008.8 1008.8 0.0
01/04:28pm 24.7 25.3 21.4 82 2.2 NE 20 35 11 19 1008.5 1008.5 0.0
01/04:10pm 24.7 23.4 21.4 82 2.2 NNE 30 48 16 26 1006.5 1006.5 0.0
01/04:00pm 24.8 23.6 21.5 82 2.2 NNE 30 44 16 24 1007.1 1007.1 0.0
01/03:31pm 25.3 24.4 21.4 79 2.6 NNE 28 46 15 25 1006.7 1006.7 0.0
01/03:30pm 25.3 24.2 21.8 81 2.3 NNE 30 46 16 25 1006.7 1006.7 0.0
01/03:00pm 26.4 25.7 21.8 76 3.1 NNE 28 39 15 21 1007.6 1007.6 0.0
01/02:32pm 26.3 25.0 20.6 71 3.7 NNE 28 46 15 25 1008.1 1008.1 0.0
01/02:30pm 26.2 25.0 20.1 69 4.0 NNE 26 46 14 25 1008.2 1008.2 0.0
01/02:00pm 26.3 25.8 20.8 71 3.6 NE 24 43 13 23 1008.7 1008.7 0.0
01/01:30pm 26.9 27.2 20.7 69 4.1 NE 20 32 11 17 1009.2 1009.2 0.0
01/01:00pm 27.5 27.8 20.8 67 4.4 NE 20 33 11 18 1009.6 1009.6 0.0
01/12:30pm 26.4 26.0 19.3 65 4.6 NE 20 32 11 17 1010.2 1010.2 0.0
01/12:00pm 26.8 26.6 19.4 64 4.8 NE 19 26 10 14 1010.6 1010.6 0.0
01/11:30am 26.7 26.5 19.3 64 4.8 NNE 19 30 10 16 1011.0 1011.0 0.0
01/11:00am 27.6 27.7 19.1 59 5.5 NE 17 24 9 13 1011.8 1011.8 0.0
01/10:30am 28.3 29.6 18.4 55 6.3 NNW 9 13 5 7 1012.2 1012.2 0.0
01/10:00am 27.0 26.6 18.0 58 5.7 N 17 24 9 13 1012.6 1012.6 0.0
01/09:30am 26.6 26.8 18.5 61 5.2 N 15 22 8 12 1012.5 1012.5 0.0
01/09:00am 26.1 26.1 18.2 61 5.0 NNW 15 22 8 12 1012.9 1012.9 0.8
01/08:30am 25.6 26.0 19.0 67 4.2 NNW 15 22 8 12 1012.9 1012.9 0.6
01/08:00am 24.9 25.7 19.1 70 3.7 NNW 13 19 7 10 1012.6 1012.6 0.6
01/07:30am 23.9 24.8 18.5 72 3.4 NNW 11 19 6 10 1012.6 1012.6 0.6
01/07:00am 22.9 24.9 18.7 77 2.7 NNW 6 7 3 4 1012.4 1012.4 0.6
01/06:30am 21.3 22.8 17.7 80 2.2 NW 6 11 3 6 1012.1 1012.1 0.6
01/06:00am 20.1 22.2 17.3 84 1.7 NW 2 7 1 4 1012.4 1012.4 0.6
01/05:30am 18.9 20.4 17.6 92 0.8 WSW 6 7 3 4 1012.2 1012.2 0.6
01/05:00am 18.3 21.1 18.0 98 0.2 CALM 0 0 0 0 1011.7 1011.7 0.6
01/04:30am 17.8 20.3 17.2 96 0.4 CALM 0 0 0 0 1011.6 1011.6 0.6
01/04:00am 18.0 19.8 17.5 97 0.3 NW 4 7 2 4 1010.9 1010.9 0.6
01/03:30am 18.3 20.1 17.3 94 0.6 NW 4 7 2 4 1011.0 1011.0 0.6
01/03:00am 18.8 21.1 17.6 93 0.7 WSW 2 6 1 3 1011.2 1011.2 0.6
01/02:30am 18.9 21.0 18.2 96 0.4 SSW 4 9 2 5 1011.6 1011.6 0.6
01/02:00am 18.5 21.3 17.9 96 0.4 CALM 0 6 0 3 1011.2 1011.2 0.6
01/01:30am 18.9 21.9 18.4 97 0.3 CALM 0 0 0 0 1011.1 1011.1 0.6
01/01:00am 18.9 21.8 18.2 96 0.4 CALM 0 6 0 3 1011.3 1011.3 0.6
01/12:30am 19.4 21.9 19.1 98 0.2 NW 4 7 2 4 1011.5 1011.5 0.6
01/12:00am 19.9 22.2 19.4 97 0.3 W 6 9 3 5 1011.9 1011.9 0.6
 
Date/Time
EST
Temp
°C
App
Temp
°C
Dew
Point
°C
Rel
Hum
%
Delta-T
°C
Wind Press
QNH
hPa
Press
MSL
hPa
Rain since
9am
mm
Dir  Spd
km/h
Gust
km/h
Spd
kts
Gust
kts
30/11:30pm 20.6 23.1 19.9 96 0.4 WNW 6 9 3 5 1012.3 1012.3 0.6
30/11:00pm 21.2 24.4 20.4 95 0.5 SW 4 7 2 4 1012.3 1012.3 0.6
30/10:30pm 21.3 24.1 20.5 95 0.5 S 6 9 3 5 1012.3 1012.3 0.6
30/10:00pm 21.5 24.3 20.5 94 0.6 SSE 6 11 3 6 1012.6 1012.6 0.6
30/09:30pm 21.8 24.3 20.3 91 1.0 SSE 7 13 4 7 1012.9 1012.9 0.6
30/09:00pm 22.0 25.0 20.1 89 1.2 WSW 4 7 2 4 1012.3 1012.3 0.6
30/08:30pm 22.4 24.2 20.3 88 1.4 NNW 11 20 6 11 1011.7 1011.7 0.6
30/08:00pm 22.5 21.1 20.4 88 1.4 NNE 28 43 15 23 1010.7 1010.7 0.6
30/07:30pm 22.6 21.0 20.1 86 1.6 NNE 28 43 15 23 1011.6 1011.6 0.4
30/07:28pm 22.9 22.4 20.8 88 1.4 NNE 24 43 13 23 1011.6 1011.6 0.2
30/07:00pm 23.9 25.1 19.0 74 3.1 SE 11 15 6 8 1013.6 1013.6 0.0
30/06:30pm 24.1 25.4 18.5 71 3.5 ENE 9 15 5 8 1012.7 1012.7 0.0
30/06:00pm 24.0 23.8 18.4 71 3.5 NE 17 26 9 14 1011.0 1011.0 0.0
30/05:30pm 24.5 24.9 19.1 72 3.4 NE 15 28 8 15 1010.4 1010.4 0.0
30/05:00pm 24.7 25.1 19.1 71 3.6 NE 15 24 8 13 1010.0 1010.0 0.0
30/04:30pm 24.4 24.5 18.3 69 3.8 NNE 15 24 8 13 1010.0 1010.0 0.0
30/04:00pm 25.0 24.8 19.4 71 3.6 NNE 19 32 10 17 1009.0 1009.0 0.0
30/03:30pm 25.3 24.7 19.7 71 3.6 NNE 22 37 12 20 1008.4 1008.4 0.0
30/03:00pm 25.8 24.3 18.5 64 4.6 NE 24 35 13 19 1008.4 1008.4 0.0
30/02:30pm 26.1 25.6 19.2 65 4.4 NE 20 32 11 17 1008.6 1008.6 0.0
30/02:00pm 25.8 24.9 19.0 66 4.4 NE 22 33 12 18 1009.0 1009.0 0.0
30/01:30pm 25.6 24.0 18.3 64 4.6 NNE 24 35 13 19 1009.4 1009.4 0.0
30/01:00pm 26.6 26.2 20.2 68 4.2 NNE 22 32 12 17 1009.7 1009.7 0.0
30/12:30pm 26.5 26.5 18.9 63 4.9 NNE 17 30 9 16 1010.1 1010.1 0.0
30/12:00pm 26.5 26.6 18.4 61 5.2 NE 15 24 8 13 1010.5 1010.5 0.0
30/11:30am 26.4 26.7 18.8 63 4.9 NE 15 24 8 13 1010.7 1010.7 0.0
30/11:00am 26.0 26.4 18.9 65 4.5 NNE 15 20 8 11 1011.2 1011.2 0.0
30/10:30am 25.4 24.8 17.6 62 4.9 NNE 17 24 9 13 1011.5 1011.5 0.0
30/10:00am 26.2 26.7 18.3 61 5.0 NE 13 20 7 11 1011.9 1011.9 0.0
30/09:30am 25.2 24.9 17.4 62 4.9 NNE 15 22 8 12 1012.2 1012.2 0.0
30/09:00am 25.7 26.0 16.0 55 5.9 N 9 17 5 9 1012.4 1012.4 0.0
30/08:30am 25.5 26.4 16.6 58 5.5 N 7 19 4 10 1012.4 1012.4 0.0
30/08:00am 24.9 25.5 17.6 64 4.6 NNW 11 19 6 10 1012.3 1012.3 0.0
30/07:30am 24.3 24.9 17.8 67 4.1 NNW 11 19 6 10 1012.5 1012.5 0.0
30/07:00am 23.4 25.0 17.8 71 3.5 WNW 6 11 3 6 1012.7 1012.7 0.0
30/06:30am 21.5 23.3 18.7 84 1.8 NW 7 9 4 5 1012.2 1012.2 0.0
30/06:00am 20.2 22.0 18.7 91 0.9 NNW 7 9 4 5 1012.0 1012.0 0.0
30/05:30am 19.1 20.7 18.3 95 0.5 WSW 7 9 4 5 1011.8 1011.8 0.0
30/05:00am 19.1 20.6 18.8 98 0.2 NNE 9 13 5 7 1011.3 1011.3 0.0
30/04:30am 19.3 21.8 19.1 99 0.1 NNE 4 9 2 5 1011.2 1011.2 0.0

Latest Capital City Observations: Canberra | Sydney | Melbourne | Brisbane | Adelaide | Perth | Hobart | Darwin

Other Formats:

Comma delimited format used in spreadsheet applications
http://www.bom.gov.au/fwo/IDQ60901/IDQ60901.94570.axf

JavaScript Object Notation format (JSON) in row-major order
http://www.bom.gov.au/fwo/IDQ60901/IDQ60901.94570.json